Time;durP1;ratioP1;P1;durP2;ratioP2;P2;SDS_P1;SDS_P2;PMS_P1;PMS_P2;Temp;Humidity;BMP_temperature;BMP_pressure;BME280_temperature;BME280_humidity;BME280_pressure;Samples;Min_cycle;Max_cycle;Signal;HPM_P1;HPM_P2
2021/10/11 00:00:51;;;;;;;124.13;56.22;;;;;;;12.31;100.00;102498.31;5021911;28;20034;-64
2021/10/11 00:03:16;;;;;;;130.68;57.45;;;;;;;12.23;100.00;102498.09;5019319;28;20105;-65
2021/10/11 00:05:41;;;;;;;121.53;53.92;;;;;;;12.19;100.00;102510.41;5017864;28;20017;-64
2021/10/11 00:08:07;;;;;;;117.45;51.55;;;;;;;12.12;100.00;102500.50;5023569;28;20030;-65
2021/10/11 00:10:32;;;;;;;113.05;50.60;;;;;;;11.97;100.00;102501.03;5026486;28;20022;-64
2021/10/11 00:12:58;;;;;;;114.82;49.72;;;;;;;11.93;100.00;102509.78;5024282;28;20416;-64
2021/10/11 00:15:26;;;;;;;118.10;49.17;;;;;;;11.78;100.00;102509.34;5024698;28;20477;-64
2021/10/11 00:17:51;;;;;;;115.22;50.70;;;;;;;11.69;100.00;102517.94;5024770;28;20108;-64
2021/10/11 00:20:17;;;;;;;116.57;50.20;;;;;;;11.60;100.00;102520.34;5025555;28;20045;-64
2021/10/11 00:22:43;;;;;;;112.50;49.80;;;;;;;11.56;100.00;102529.06;5024446;28;20022;-64
2021/10/11 00:25:09;;;;;;;110.68;47.83;;;;;;;11.54;100.00;102529.03;5026530;28;20032;-64
2021/10/11 00:27:35;;;;;;;108.18;46.38;;;;;;;11.54;100.00;102536.09;5019165;28;20026;-65
2021/10/11 00:30:01;;;;;;;100.13;43.42;;;;;;;11.58;100.00;102527.38;5021710;28;20081;-64
2021/10/11 00:32:27;;;;;;;102.18;44.08;;;;;;;11.66;100.00;102515.22;5017723;28;20018;-64
2021/10/11 00:34:52;;;;;;;92.75;41.28;;;;;;;11.66;100.00;102524.06;5022436;28;20018;-64
2021/10/11 00:37:18;;;;;;;96.47;41.08;;;;;;;11.63;100.00;102525.72;5020600;28;20030;-64
2021/10/11 00:39:43;;;;;;;100.43;39.40;;;;;;;11.49;100.00;102534.19;5020387;28;20039;-64
2021/10/11 00:42:09;;;;;;;90.70;38.67;;;;;;;11.39;100.00;102536.53;5021522;28;20095;-66
2021/10/11 00:44:34;;;;;;;87.68;38.67;;;;;;;11.33;100.00;102532.00;5019473;28;20072;-64
2021/10/11 00:47:00;;;;;;;87.22;38.15;;;;;;;11.34;100.00;102525.81;5021367;28;20068;-65
2021/10/11 00:49:25;;;;;;;86.13;38.45;;;;;;;11.28;100.00;102528.31;5021490;28;20053;-64
2021/10/11 00:51:51;;;;;;;83.22;35.75;;;;;;;11.23;100.00;102530.81;5018028;28;20045;-64
2021/10/11 00:54:17;;;;;;;81.57;35.53;;;;;;;11.24;100.00;102542.31;5018547;28;20022;-65
2021/10/11 00:56:43;;;;;;;84.28;35.53;;;;;;;11.21;100.00;102535.16;5021605;28;20037;-64
2021/10/11 00:59:09;;;;;;;96.05;35.72;;;;;;;11.16;100.00;102529.75;5017985;28;20029;-64
2021/10/11 01:01:34;;;;;;;87.38;35.72;;;;;;;11.04;100.00;102526.75;5020192;28;20029;-65
2021/10/11 01:04:04;;;;;;;88.65;36.08;;;;;;;10.93;100.00;102525.53;5021842;28;20026;-64
2021/10/11 01:06:30;;;;;;;83.00;34.13;;;;;;;10.90;100.00;102528.09;5018340;28;20061;-65
2021/10/11 01:08:55;;;;;;;81.53;33.85;;;;;;;10.78;100.00;102521.59;5022393;28;20033;-64
2021/10/11 01:11:21;;;;;;;80.72;31.27;;;;;;;10.89;100.00;102515.72;5021188;28;20017;-64
2021/10/11 01:13:46;;;;;;;82.78;32.42;;;;;;;10.85;100.00;102521.75;5020379;28;20172;-65
2021/10/11 01:16:11;;;;;;;74.20;30.80;;;;;;;11.01;100.00;102517.81;5020792;28;20026;-64
2021/10/11 01:18:37;;;;;;;101.90;32.03;;;;;;;11.12;100.00;102511.97;5020196;28;20033;-64
2021/10/11 01:21:02;;;;;;;100.28;30.27;;;;;;;11.18;100.00;102505.97;5019160;28;20022;-64
2021/10/11 01:23:27;;;;;;;104.03;31.92;;;;;;;11.27;100.00;102505.31;5018602;28;20029;-64
2021/10/11 01:25:53;;;;;;;108.93;28.92;;;;;;;11.36;100.00;102512.63;5021655;28;20113;-64
2021/10/11 01:28:19;;;;;;;106.78;30.40;;;;;;;11.37;100.00;102512.66;5019304;28;20113;-64
2021/10/11 01:30:45;;;;;;;110.35;28.90;;;;;;;11.34;100.00;102508.22;5024007;28;20132;-64
2021/10/11 01:33:10;;;;;;;93.65;27.58;;;;;;;11.35;100.00;102503.78;5021881;28;20017;-64
2021/10/11 01:35:36;;;;;;;84.10;27.77;;;;;;;11.38;100.00;102505.63;5018628;28;20040;-64
2021/10/11 01:38:01;;;;;;;84.55;28.25;;;;;;;11.35;100.00;102509.09;5027194;28;20538;-65
2021/10/11 01:40:27;;;;;;;81.60;26.70;;;;;;;11.32;100.00;102509.00;5024061;28;20377;-64
2021/10/11 01:42:52;;;;;;;88.35;27.48;;;;;;;11.31;100.00;102507.22;5024066;28;20464;-66
2021/10/11 01:45:18;;;;;;;78.97;26.27;;;;;;;11.33;100.00;102502.88;5023566;28;20061;-64
2021/10/11 01:47:43;;;;;;;80.50;26.75;;;;;;;11.25;100.00;102502.63;5021681;28;20061;-64
2021/10/11 01:50:08;;;;;;;78.60;26.95;;;;;;;11.23;100.00;102500.81;5023569;28;20049;-64
2021/10/11 01:52:35;;;;;;;71.45;26.75;;;;;;;11.12;100.00;102496.09;5024494;28;20125;-64
2021/10/11 01:55:01;;;;;;;68.70;26.50;;;;;;;11.08;100.00;102511.84;5023081;28;20444;-64
2021/10/11 01:57:26;;;;;;;60.28;26.15;;;;;;;11.09;100.00;102511.88;5021044;28;20033;-64
2021/10/11 01:59:52;;;;;;;61.05;24.92;;;;;;;11.08;100.00;102506.56;5021064;28;20507;-64
2021/10/11 02:02:17;;;;;;;56.95;25.75;;;;;;;11.09;100.00;102509.25;5017016;28;20091;-64
2021/10/11 02:04:42;;;;;;;59.38;25.27;;;;;;;11.09;100.00;102511.88;5022178;28;20030;-64
2021/10/11 02:07:08;;;;;;;59.55;24.88;;;;;;;11.11;100.00;102512.84;5023384;28;20109;-64
2021/10/11 02:09:33;;;;;;;58.50;24.25;;;;;;;11.15;100.00;102517.38;5021379;28;20026;-64
2021/10/11 02:11:59;;;;;;;55.78;24.00;;;;;;;11.15;100.00;102514.75;5022557;28;20065;-64
2021/10/11 02:14:24;;;;;;;63.40;23.65;;;;;;;11.21;100.00;102521.03;5018587;28;20025;-65
2021/10/11 02:16:50;;;;;;;53.17;22.13;;;;;;;11.26;100.00;102509.72;5023508;28;20468;-64
2021/10/11 02:19:15;;;;;;;52.40;20.63;;;;;;;11.25;100.00;102525.56;5018966;28;20034;-64
2021/10/11 02:21:40;;;;;;;51.00;20.17;;;;;;;11.31;100.00;102529.31;5017972;28;20018;-64
2021/10/11 02:24:06;;;;;;;53.75;21.52;;;;;;;11.30;100.00;102526.59;5018709;28;20509;-64
2021/10/11 02:26:31;;;;;;;48.53;19.65;;;;;;;11.36;100.00;102531.16;5021992;28;20042;-64
2021/10/11 02:28:57;;;;;;;50.67;18.75;;;;;;;11.33;100.00;102526.69;5018095;28;21070;-65
2021/10/11 02:31:22;;;;;;;53.42;20.67;;;;;;;11.27;100.00;102515.91;5022316;28;20022;-65
2021/10/11 02:33:49;;;;;;;51.95;19.38;;;;;;;11.25;100.00;102515.88;5017894;28;20035;-64
2021/10/11 02:36:14;;;;;;;52.08;19.58;;;;;;;11.20;100.00;102519.25;5020084;28;20053;-65
2021/10/11 02:38:40;;;;;;;50.08;20.08;;;;;;;11.10;100.00;102519.00;5018446;28;20101;-64
2021/10/11 02:41:05;;;;;;;46.30;18.38;;;;;;;11.11;100.00;102515.50;5019142;28;20032;-65
2021/10/11 02:43:31;;;;;;;48.42;18.58;;;;;;;11.06;100.00;102505.63;5019832;28;20072;-64
2021/10/11 02:45:56;;;;;;;48.63;18.52;;;;;;;11.04;100.00;102521.47;5019277;28;20116;-64
2021/10/11 02:48:21;;;;;;;45.63;18.20;;;;;;;11.03;100.00;102522.31;5019042;28;20168;-64
2021/10/11 02:50:47;;;;;;;49.90;17.60;;;;;;;11.03;100.00;102521.44;5022379;28;20050;-65
2021/10/11 02:53:12;;;;;;;46.15;17.60;;;;;;;10.93;100.00;102517.59;5016550;28;20036;-64
2021/10/11 02:55:37;;;;;;;44.92;17.27;;;;;;;10.92;100.00;102523.72;5019828;28;20436;-64
2021/10/11 02:58:03;;;;;;;44.75;16.55;;;;;;;10.84;100.00;102519.97;5019903;28;20045;-65
2021/10/11 03:00:28;;;;;;;45.85;17.05;;;;;;;10.85;100.00;102516.47;5018379;28;20427;-64
2021/10/11 03:02:53;;;;;;;50.28;16.25;;;;;;;10.80;100.00;102514.59;5019899;28;20021;-64
2021/10/11 03:05:19;;;;;;;45.92;17.20;;;;;;;10.78;100.00;102518.94;5018246;28;20036;-64
2021/10/11 03:07:44;;;;;;;44.25;16.05;;;;;;;10.78;100.00;102511.00;5019703;28;20026;-64
2021/10/11 03:10:10;;;;;;;44.60;15.90;;;;;;;10.80;100.00;102518.97;5018421;28;20021;-64
2021/10/11 03:12:35;;;;;;;44.40;15.77;;;;;;;10.77;100.00;102519.78;5017851;28;20024;-65
2021/10/11 03:15:03;;;;;;;44.38;15.60;;;;;;;10.76;100.00;102514.44;5020627;28;20358;-64
2021/10/11 03:17:28;;;;;;;44.60;15.48;;;;;;;10.74;100.00;102521.44;5016882;28;20030;-64
2021/10/11 03:19:53;;;;;;;42.63;15.18;;;;;;;10.75;100.00;102521.50;5018972;28;20028;-64
2021/10/11 03:22:19;;;;;;;45.28;15.05;;;;;;;10.76;100.00;102517.09;5015658;28;20385;-64
2021/10/11 03:24:44;;;;;;;40.53;14.55;;;;;;;10.75;100.00;102515.31;5020234;28;20465;-65
2021/10/11 03:27:09;;;;;;;39.35;14.05;;;;;;;10.73;100.00;102509.06;5016467;28;20053;-64
2021/10/11 03:29:35;;;;;;;38.30;13.93;;;;;;;10.67;100.00;102507.13;5019291;28;20050;-65
2021/10/11 03:32:00;;;;;;;39.22;13.93;;;;;;;10.63;100.00;102508.78;5016628;28;20121;-64
2021/10/11 03:34:25;;;;;;;40.78;13.35;;;;;;;10.55;100.00;102506.75;5019551;28;20034;-64
2021/10/11 03:36:50;;;;;;;36.00;13.68;;;;;;;10.51;100.00;102494.28;5017746;28;20042;-64
2021/10/11 03:39:16;;;;;;;47.85;13.60;;;;;;;10.46;100.00;102492.41;5018958;28;20021;-64
2021/10/11 03:41:41;;;;;;;45.72;14.38;;;;;;;10.41;100.00;102501.94;5018503;28;20431;-64
2021/10/11 03:44:07;;;;;;;40.15;13.77;;;;;;;10.41;100.00;102504.59;5020281;28;20033;-64
2021/10/11 03:46:33;;;;;;;37.05;13.70;;;;;;;10.42;100.00;102498.44;5022930;28;20105;-64
2021/10/11 03:48:59;;;;;;;41.08;13.27;;;;;;;10.42;100.00;102505.47;5025164;28;20598;-65
2021/10/11 03:51:24;;;;;;;38.20;13.60;;;;;;;10.44;100.00;102504.69;5021320;28;20037;-65
2021/10/11 03:53:50;;;;;;;40.13;13.50;;;;;;;10.37;100.00;102508.00;5025241;28;20018;-64
2021/10/11 03:56:16;;;;;;;40.85;13.73;;;;;;;10.33;100.00;102503.41;5025182;28;20072;-65
2021/10/11 03:58:42;;;;;;;42.50;13.25;;;;;;;10.35;100.00;102509.66;5024710;28;20029;-64
2021/10/11 04:01:07;;;;;;;36.97;13.18;;;;;;;10.38;100.00;102499.22;5026625;28;20021;-65
2021/10/11 04:03:33;;;;;;;40.15;12.57;;;;;;;10.37;100.00;102513.28;5021758;28;20026;-65
2021/10/11 04:05:58;;;;;;;40.28;12.27;;;;;;;10.41;100.00;102509.88;5028240;28;20040;-65
2021/10/11 04:08:32;;;;;;;44.42;12.07;;;;;;;10.38;100.00;102520.38;5026111;28;20027;-64
2021/10/11 04:11:07;;;;;;;42.58;12.90;;;;;;;10.35;100.00;102519.34;5027429;28;20029;-64
2021/10/11 04:13:32;;;;;;;39.85;12.32;;;;;;;10.30;100.00;102529.75;5020934;28;20057;-64
2021/10/11 04:15:57;;;;;;;38.20;11.48;;;;;;;10.35;100.00;102520.25;5023237;28;20064;-65
2021/10/11 04:18:23;;;;;;;39.28;12.15;;;;;;;10.23;100.00;102519.81;5026373;28;20063;-65
2021/10/11 04:20:48;;;;;;;41.58;11.73;;;;;;;10.09;100.00;102516.72;5024398;28;20037;-64
2021/10/11 04:23:14;;;;;;;40.22;11.70;;;;;;;9.97;100.00;102511.03;5023119;28;20525;-64
2021/10/11 04:25:39;;;;;;;34.45;11.43;;;;;;;9.87;100.00;102518.66;5025509;28;20033;-64
2021/10/11 04:28:07;;;;;;;40.20;11.98;;;;;;;9.77;100.00;102530.66;5021571;28;20456;-64
2021/10/11 04:30:32;;;;;;;37.47;11.88;;;;;;;9.72;100.00;102519.03;5025688;28;20029;-64
2021/10/11 04:32:57;;;;;;;39.17;11.45;;;;;;;9.64;100.00;102516.97;5024001;28;20032;-64
2021/10/11 04:35:25;;;;;;;36.17;11.45;;;;;;;9.52;100.00;102518.34;5020664;28;20040;-64
2021/10/11 04:37:51;;;;;;;40.33;12.95;;;;;;;9.41;100.00;102515.31;5027573;28;20112;-65
2021/10/11 04:40:17;;;;;;;37.42;11.73;;;;;;;9.32;100.00;102514.06;5021584;28;20061;-64
2021/10/11 04:42:42;;;;;;;39.80;12.27;;;;;;;9.26;100.00;102514.75;5019467;28;20057;-64
2021/10/11 04:45:08;;;;;;;36.95;11.07;;;;;;;9.24;100.00;102511.16;5023200;28;20037;-65
2021/10/11 04:47:33;;;;;;;39.42;11.50;;;;;;;9.29;100.00;102512.25;5019890;28;20029;-64
2021/10/11 04:49:58;;;;;;;38.80;12.10;;;;;;;9.17;100.00;102515.31;5024047;28;20116;-64
2021/10/11 04:52:24;;;;;;;38.03;11.48;;;;;;;9.08;100.00;102521.16;5023754;28;20025;-64
2021/10/11 04:54:49;;;;;;;38.08;11.30;;;;;;;8.96;100.00;102520.69;5020640;28;20116;-64
2021/10/11 04:57:15;;;;;;;35.95;12.07;;;;;;;9.02;100.00;102522.69;5019316;28;20033;-65
2021/10/11 04:59:40;;;;;;;37.67;12.40;;;;;;;8.90;100.00;102531.03;5020593;28;20037;-64
2021/10/11 05:02:05;;;;;;;31.88;11.02;;;;;;;8.80;100.00;102529.78;5019607;28;20034;-65
2021/10/11 05:04:31;;;;;;;38.70;12.55;;;;;;;8.82;100.00;102517.53;5022332;28;20029;-64
2021/10/11 05:06:56;;;;;;;35.90;12.02;;;;;;;8.84;100.00;102517.59;5017942;28;20017;-64
2021/10/11 05:09:21;;;;;;;38.55;12.25;;;;;;;8.78;100.00;102520.91;5022002;28;20028;-65
2021/10/11 05:11:47;;;;;;;41.92;12.77;;;;;;;8.75;100.00;102525.16;5022617;28;20026;-64
2021/10/11 05:14:12;;;;;;;41.78;13.02;;;;;;;8.74;100.00;102519.00;5020462;28;20045;-64
2021/10/11 05:16:37;;;;;;;40.20;12.77;;;;;;;8.67;100.00;102519.59;5018102;28;20034;-64
2021/10/11 05:19:03;;;;;;;45.03;12.75;;;;;;;8.60;100.00;102531.63;5019752;28;20076;-64
2021/10/11 05:21:30;;;;;;;42.28;12.55;;;;;;;8.66;100.00;102528.34;5018935;28;20024;-65
2021/10/11 05:23:56;;;;;;;34.03;12.02;;;;;;;8.64;100.00;102514.22;5022464;28;20037;-64
2021/10/11 05:26:22;;;;;;;41.60;12.63;;;;;;;8.64;100.00;102517.72;5018483;28;20022;-64
2021/10/11 05:28:47;;;;;;;41.88;13.73;;;;;;;8.65;100.00;102516.91;5022774;28;20516;-65
2021/10/11 05:31:12;;;;;;;44.72;14.13;;;;;;;8.58;100.00;102511.31;5018232;28;20118;-64
2021/10/11 05:33:38;;;;;;;41.10;13.07;;;;;;;8.57;100.00;102513.06;5018680;28;20026;-65
2021/10/11 05:36:04;;;;;;;42.38;13.73;;;;;;;8.49;100.00;102515.41;5020091;28;20030;-65
2021/10/11 05:38:30;;;;;;;38.13;13.30;;;;;;;8.42;100.00;102513.31;5022007;28;20782;-64
2021/10/11 05:40:55;;;;;;;42.17;13.65;;;;;;;8.32;100.00;102527.84;5022060;28;20029;-66
2021/10/11 05:43:23;;;;;;;38.33;13.45;;;;;;;8.30;100.00;102526.00;5020496;28;20034;-66
2021/10/11 05:45:49;;;;;;;41.92;14.50;;;;;;;8.29;100.00;102525.09;5019846;28;20026;-65
2021/10/11 05:48:14;;;;;;;41.70;14.18;;;;;;;8.44;100.00;102523.94;5022112;28;20033;-65
2021/10/11 05:50:39;;;;;;;42.58;14.60;;;;;;;8.50;100.00;102524.19;5020475;28;20116;-66
2021/10/11 05:53:05;;;;;;;43.10;14.88;;;;;;;8.59;100.00;102523.66;5019662;28;20034;-65
2021/10/11 05:55:30;;;;;;;45.42;15.32;;;;;;;8.67;100.00;102527.50;5020486;28;20097;-67
2021/10/11 05:57:56;;;;;;;46.08;15.07;;;;;;;8.76;100.00;102534.88;5023047;28;20025;-67
2021/10/11 06:00:22;;;;;;;43.15;13.95;;;;;;;8.84;100.00;102536.97;5023027;28;20101;-66
2021/10/11 06:02:47;;;;;;;47.47;15.25;;;;;;;8.90;100.00;102536.31;5020548;28;20022;-65
2021/10/11 06:05:12;;;;;;;41.60;14.23;;;;;;;8.93;100.00;102541.69;5026781;28;20025;-67
2021/10/11 06:07:38;;;;;;;41.05;13.60;;;;;;;8.96;100.00;102536.53;5019548;28;20022;-66
2021/10/11 06:10:04;;;;;;;44.58;14.15;;;;;;;8.98;100.00;102536.59;5021756;28;20060;-66
2021/10/11 06:12:29;;;;;;;44.03;14.77;;;;;;;9.00;100.00;102534.88;5023224;28;20034;-66
2021/10/11 06:14:54;;;;;;;39.92;14.60;;;;;;;9.02;100.00;102531.47;5021238;28;20033;-66
2021/10/11 06:17:20;;;;;;;42.70;13.65;;;;;;;9.03;100.00;102535.91;5023783;28;20088;-65
2021/10/11 06:19:45;;;;;;;39.53;12.88;;;;;;;9.04;100.00;102539.44;5023613;28;20033;-65
2021/10/11 06:22:11;;;;;;;38.72;12.63;;;;;;;9.05;100.00;102528.06;5020724;28;20018;-65
2021/10/11 06:24:36;;;;;;;39.25;12.65;;;;;;;9.06;100.00;102530.75;5022612;28;20029;-66
2021/10/11 06:27:03;;;;;;;39.30;12.60;;;;;;;9.02;100.00;102520.94;5023960;28;20030;-65
2021/10/11 06:29:29;;;;;;;40.67;13.32;;;;;;;8.99;100.00;102525.19;5019499;28;20041;-65
2021/10/11 06:31:54;;;;;;;42.30;13.05;;;;;;;8.97;100.00;102530.41;5020599;28;20388;-65
2021/10/11 06:34:21;;;;;;;38.13;13.07;;;;;;;9.00;100.00;102538.44;5021804;28;20057;-64
2021/10/11 06:36:46;;;;;;;39.70;12.85;;;;;;;8.98;100.00;102536.59;5022452;28;20451;-65
2021/10/11 06:39:12;;;;;;;44.08;13.60;;;;;;;9.01;100.00;102544.63;5019564;28;20461;-65
2021/10/11 06:41:37;;;;;;;41.65;13.80;;;;;;;9.06;100.00;102543.94;5016089;28;20041;-64
2021/10/11 06:44:02;;;;;;;38.10;13.55;;;;;;;9.07;100.00;102543.13;5019562;28;20021;-65
2021/10/11 06:46:28;;;;;;;42.40;15.32;;;;;;;9.10;100.00;102546.69;5019385;28;20036;-64
2021/10/11 06:48:53;;;;;;;41.70;14.18;;;;;;;9.11;100.00;102556.41;5021477;28;20018;-64
2021/10/11 06:51:18;;;;;;;40.35;13.75;;;;;;;9.17;100.00;102565.44;5019644;28;20049;-65
2021/10/11 06:53:44;;;;;;;39.67;13.75;;;;;;;9.22;100.00;102566.53;5018463;28;20018;-66
2021/10/11 06:56:09;;;;;;;40.28;13.93;;;;;;;9.29;100.00;102567.66;5018724;28;20034;-65
2021/10/11 06:58:34;;;;;;;42.38;13.80;;;;;;;9.36;100.00;102560.84;5020272;28;20037;-65
2021/10/11 07:01:00;;;;;;;43.45;14.32;;;;;;;9.42;100.00;102555.78;5018961;28;20014;-66
2021/10/11 07:03:26;;;;;;;39.03;14.10;;;;;;;9.51;100.00;102560.50;5019894;28;20017;-65
2021/10/11 07:05:57;;;;;;;40.03;13.82;;;;;;;9.56;100.00;102553.66;5016729;28;20349;-65
2021/10/11 07:08:22;;;;;;;39.03;14.60;;;;;;;9.59;100.00;102551.13;5019172;28;20028;-65
2021/10/11 07:10:48;;;;;;;42.63;14.90;;;;;;;9.61;100.00;102554.75;5017484;28;20021;-65
2021/10/11 07:13:13;;;;;;;44.50;15.02;;;;;;;9.63;100.00;102558.31;5019622;28;20028;-66
2021/10/11 07:15:38;;;;;;;45.15;14.95;;;;;;;9.61;100.00;102560.03;5019389;28;20060;-66
2021/10/11 07:18:04;;;;;;;44.15;15.35;;;;;;;9.59;100.00;102566.97;5019418;28;20030;-67
2021/10/11 07:20:29;;;;;;;39.60;15.23;;;;;;;9.62;100.00;102559.16;5017874;28;20025;-65
2021/10/11 07:22:55;;;;;;;44.65;14.60;;;;;;;9.62;100.00;102566.19;5016448;28;20461;-66
2021/10/11 07:25:20;;;;;;;42.25;15.23;;;;;;;9.65;100.00;102563.66;5017416;28;20036;-66
2021/10/11 07:27:46;;;;;;;41.90;15.55;;;;;;;9.64;100.00;102565.41;5016732;28;20049;-67
2021/10/11 07:30:11;;;;;;;44.50;15.70;;;;;;;9.68;100.00;102575.22;5016786;28;20396;-67
2021/10/11 07:32:37;;;;;;;43.15;16.33;;;;;;;9.73;100.00;102586.84;5015335;28;20025;-65
2021/10/11 07:35:02;;;;;;;44.15;15.63;;;;;;;9.82;100.00;102585.38;5017961;28;20494;-65
2021/10/11 07:37:28;;;;;;;45.40;16.48;;;;;;;9.88;100.00;102585.59;5015138;28;20034;-66
2021/10/11 07:39:53;;;;;;;41.63;15.50;;;;;;;9.88;100.00;102591.75;5017330;28;20057;-66
2021/10/11 07:42:20;;;;;;;41.67;16.10;;;;;;;9.91;100.00;102590.97;5013825;28;20469;-65
2021/10/11 07:44:45;;;;;;;43.92;16.00;;;;;;;9.97;100.00;102593.81;5017341;28;20026;-64
2021/10/11 07:47:11;;;;;;;40.85;15.85;;;;;;;10.11;100.00;102596.97;5019983;28;20025;-64
2021/10/11 07:49:36;;;;;;;42.42;16.05;;;;;;;10.24;100.00;102609.75;5017304;28;20026;-64
2021/10/11 07:52:02;;;;;;;44.72;13.70;;;;;;;10.38;100.00;102599.69;5019673;28;20037;-65
2021/10/11 07:54:28;;;;;;;39.38;14.02;;;;;;;10.51;100.00;102605.34;5018734;28;20061;-64
2021/10/11 07:56:53;;;;;;;40.00;13.13;;;;;;;10.62;100.00;102604.84;5018449;28;20085;-66
2021/10/11 07:59:18;;;;;;;38.03;13.68;;;;;;;10.80;100.00;102612.50;5019165;28;20032;-64
2021/10/11 08:01:44;;;;;;;39.63;13.02;;;;;;;10.83;100.00;102611.66;5013470;28;20612;-67
2021/10/11 08:04:09;;;;;;;36.28;11.43;;;;;;;10.96;100.00;102611.19;5016036;28;20041;-65
2021/10/11 08:06:35;;;;;;;36.75;12.45;;;;;;;11.06;100.00;102607.09;5019784;28;20022;-65
2021/10/11 08:09:01;;;;;;;36.08;12.07;;;;;;;11.16;100.00;102606.50;5016278;28;20157;-65
2021/10/11 08:11:26;;;;;;;36.33;12.60;;;;;;;11.19;100.00;102600.41;5018254;28;20064;-65
2021/10/11 08:13:52;;;;;;;35.83;11.82;;;;;;;11.32;100.00;102610.50;5018610;28;20029;-65
2021/10/11 08:16:17;;;;;;;37.03;11.63;;;;;;;11.28;100.00;102616.56;5018754;28;20022;-65
2021/10/11 08:18:43;;;;;;;35.58;11.98;;;;;;;11.41;100.00;102620.47;5018576;28;20034;-65
2021/10/11 08:21:08;;;;;;;36.13;11.52;;;;;;;11.44;100.00;102620.56;5016459;28;20618;-68
2021/10/11 08:23:36;;;;;;;36.38;11.63;;;;;;;11.41;100.00;102623.13;5016631;28;20112;-66
2021/10/11 08:26:02;;;;;;;33.03;11.43;;;;;;;11.41;100.00;102625.75;5018524;28;20160;-67
2021/10/11 08:28:28;;;;;;;39.80;12.20;;;;;;;11.40;100.00;102626.63;5018037;28;20053;-66
2021/10/11 08:30:54;;;;;;;38.60;12.15;;;;;;;11.47;100.00;102630.34;5020538;28;20099;-65
2021/10/11 08:33:20;;;;;;;38.75;12.00;;;;;;;11.56;100.00;102624.41;5018064;28;20485;-66
2021/10/11 08:35:45;;;;;;;37.35;12.23;;;;;;;11.51;100.00;102621.63;5023961;28;20469;-65
2021/10/11 08:38:11;;;;;;;35.55;11.43;;;;;;;11.50;100.00;102620.75;5022815;28;20034;-65
2021/10/11 08:40:36;;;;;;;34.53;11.88;;;;;;;11.45;100.00;102624.13;5023156;28;20036;-65
2021/10/11 08:43:02;;;;;;;37.15;12.90;;;;;;;11.58;100.00;102622.72;5021936;28;20075;-66
2021/10/11 08:45:27;;;;;;;37.42;12.30;;;;;;;11.64;100.00;102623.78;5024303;28;20035;-65
2021/10/11 08:47:53;;;;;;;38.97;12.82;;;;;;;11.70;100.00;102617.75;5024055;28;20112;-65
2021/10/11 08:50:19;;;;;;;37.55;12.23;;;;;;;11.72;100.00;102620.44;5015421;28;20057;-65
2021/10/11 08:52:46;;;;;;;37.50;12.65;;;;;;;11.83;100.00;102619.88;5023872;28;20029;-65
2021/10/11 08:55:13;;;;;;;42.83;13.43;;;;;;;11.97;100.00;102619.38;5025295;28;20069;-66
2021/10/11 08:57:38;;;;;;;43.85;14.07;;;;;;;12.04;100.00;102621.34;5019729;28;20067;-65
2021/10/11 09:00:07;;;;;;;41.95;15.80;;;;;;;12.15;100.00;102622.53;5024342;28;20029;-65
2021/10/11 09:02:32;;;;;;;41.58;15.18;;;;;;;12.25;98.99;102628.97;5026779;28;20029;-65
2021/10/11 09:04:58;;;;;;;40.60;13.60;;;;;;;12.38;99.54;102630.19;5025619;28;20030;-65
2021/10/11 09:07:29;;;;;;;40.85;13.77;;;;;;;12.66;96.44;102623.78;5026177;28;20449;-65
2021/10/11 09:09:56;;;;;;;38.65;14.10;;;;;;;12.70;95.33;102628.31;5024924;28;20425;-65
2021/10/11 09:12:28;;;;;;;37.50;14.18;;;;;;;12.74;96.03;102623.97;5026230;28;20040;-66
2021/10/11 09:15:06;;;;;;;39.97;14.35;;;;;;;12.88;93.25;102622.53;5023411;28;20025;-69
2021/10/11 09:17:36;;;;;;;34.78;13.55;;;;;;;12.88;93.29;102619.88;5023615;28;20025;-67
2021/10/11 09:20:18;;;;;;;43.47;15.15;;;;;;;13.03;90.69;102629.06;5025203;28;20026;-68
2021/10/11 09:22:45;;;;;;;42.73;15.57;;;;;;;13.12;93.38;102631.03;5024912;28;20101;-68
2021/10/11 09:25:12;;;;;;;43.33;16.88;;;;;;;13.24;92.17;102624.22;5019721;28;20776;-67
2021/10/11 09:27:56;;;;;;;41.40;15.75;;;;;;;13.43;92.20;102620.22;5019109;28;20528;-67
2021/10/11 09:30:27;;;;;;;44.08;17.35;;;;;;;13.46;91.79;102621.19;5020412;28;20025;-68
2021/10/11 09:33:15;;;;;;;39.20;16.02;;;;;;;13.40;91.86;102619.28;5015744;28;20088;-69
2021/10/11 09:35:42;;;;;;;38.75;15.43;;;;;;;13.27;89.55;102615.44;5019931;28;20062;-67
2021/10/11 09:38:23;;;;;;;39.45;15.73;;;;;;;13.25;92.97;102618.06;5018403;28;20037;-66
2021/10/11 09:40:51;;;;;;;41.38;16.58;;;;;;;13.22;92.46;102623.31;5017634;28;20282;-67
2021/10/11 09:43:20;;;;;;;39.10;16.00;;;;;;;13.31;93.72;102625.25;5016818;28;20029;-68
2021/10/11 09:45:46;;;;;;;39.80;14.63;;;;;;;13.38;91.45;102623.66;5017668;28;20041;-67
2021/10/11 09:48:12;;;;;;;36.75;13.02;;;;;;;13.42;92.11;102625.50;5019304;28;20036;-64
2021/10/11 09:50:38;;;;;;;36.40;12.50;;;;;;;13.52;90.74;102626.59;5019344;28;20042;-65
2021/10/11 09:53:04;;;;;;;36.25;11.60;;;;;;;13.38;90.16;102631.63;5016993;28;20037;-66
2021/10/11 09:55:30;;;;;;;36.38;11.65;;;;;;;13.37;92.78;102633.38;5021084;28;20037;-65
2021/10/11 09:57:56;;;;;;;39.40;10.52;;;;;;;13.26;90.87;102634.88;5022199;28;20388;-64
2021/10/11 10:00:22;;;;;;;36.03;10.68;;;;;;;13.23;93.19;102637.47;5016276;28;20072;-64
2021/10/11 10:02:47;;;;;;;32.75;10.25;;;;;;;13.19;95.44;102638.25;5020576;28;20484;-67
2021/10/11 10:05:26;;;;;;;35.75;11.30;;;;;;;13.10;98.49;102631.00;5018544;28;20022;-68
2021/10/11 10:07:54;;;;;;;35.25;10.45;;;;;;;13.12;95.93;102629.28;5014804;28;20054;-67
2021/10/11 10:10:22;;;;;;;34.08;9.15;;;;;;;13.07;96.61;102630.94;5018269;28;20092;-70
2021/10/11 10:12:49;;;;;;;37.53;10.23;;;;;;;13.24;100.00;102629.53;5019652;28;20029;-65
2021/10/11 10:15:33;;;;;;;38.22;9.50;;;;;;;13.45;97.15;102622.03;5020123;28;20029;-69
2021/10/11 10:18:01;;;;;;;36.75;8.32;;;;;;;13.42;93.84;102625.50;5018926;28;20075;-66
2021/10/11 10:20:27;;;;;;;33.15;8.13;;;;;;;13.47;94.56;102628.25;5020451;28;20022;-64
2021/10/11 10:22:52;;;;;;;34.63;8.63;;;;;;;13.54;93.98;102627.53;5019941;28;20537;-65
2021/10/11 10:25:18;;;;;;;33.45;7.97;;;;;;;13.60;93.82;102630.28;5023705;28;20437;-64
2021/10/11 10:27:47;;;;;;;37.22;8.80;;;;;;;13.64;92.34;102636.59;5022810;28;20492;-65
2021/10/11 10:30:17;;;;;;;36.15;8.75;;;;;;;13.68;93.97;102635.78;5023229;28;20463;-68
2021/10/11 10:33:12;;;;;;;30.00;7.88;;;;;;;13.83;92.94;102640.50;5022771;28;20036;-64
2021/10/11 10:35:40;;;;;;;32.97;8.00;;;;;;;13.95;90.92;102638.09;5023778;28;20032;-65
2021/10/11 10:38:19;;;;;;;34.33;8.18;;;;;;;13.94;90.94;102634.50;5021683;28;20036;-66
2021/10/11 10:40:46;;;;;;;35.10;8.05;;;;;;;13.90;90.60;102634.44;5020648;28;20036;-68
2021/10/11 10:43:15;;;;;;;36.15;7.78;;;;;;;13.63;91.16;102634.78;5020668;28;20040;-65
2021/10/11 10:45:41;;;;;;;31.27;7.50;;;;;;;13.43;92.86;102624.66;5019047;28;20075;-65
2021/10/11 10:48:26;;;;;;;36.30;7.78;;;;;;;13.37;94.58;102629.84;5017663;28;20034;-65
2021/10/11 10:50:55;;;;;;;31.60;7.13;;;;;;;13.31;94.75;102627.00;5020883;28;20088;-64
2021/10/11 10:53:22;;;;;;;34.30;7.65;;;;;;;13.33;94.38;102633.25;5014860;28;20473;-64
2021/10/11 10:55:48;;;;;;;29.23;6.80;;;;;;;13.32;94.02;102629.69;5016629;28;20068;-66
2021/10/11 10:58:16;;;;;;;29.73;6.63;;;;;;;13.40;93.78;102629.91;5020912;28;20419;-64
2021/10/11 11:00:42;;;;;;;30.48;7.07;;;;;;;13.63;94.81;102635.69;5019488;28;20030;-64